sensor_id;sensor_type;location;lat;lon;timestamp;pressure;altitude;pressure_sealevel;temperature;humidity
8705;BME280;4389;41.932;25.904;2022-10-16T00:00:43;101230.38;;;9.46;95.76
8705;BME280;4389;41.932;25.904;2022-10-16T00:03:10;101222.81;;;9.41;95.37
8705;BME280;4389;41.932;25.904;2022-10-16T00:05:39;101224.72;;;9.27;95.63
8705;BME280;4389;41.932;25.904;2022-10-16T00:08:07;101228.38;;;9.13;95.92
8705;BME280;4389;41.932;25.904;2022-10-16T00:10:34;101233.50;;;9.15;96.12
8705;BME280;4389;41.932;25.904;2022-10-16T00:13:02;101239.22;;;9.21;95.45
8705;BME280;4389;41.932;25.904;2022-10-16T00:15:32;101244.38;;;9.23;95.58
8705;BME280;4389;41.932;25.904;2022-10-16T00:18:01;101239.94;;;9.23;96.16
8705;BME280;4389;41.932;25.904;2022-10-16T00:20:28;101239.28;;;9.32;95.66
8705;BME280;4389;41.932;25.904;2022-10-16T00:22:56;101233.38;;;9.29;95.77
8705;BME280;4389;41.932;25.904;2022-10-16T00:25:24;101238.84;;;9.38;95.21
8705;BME280;4389;41.932;25.904;2022-10-16T00:27:51;101243.50;;;9.35;95.17
8705;BME280;4389;41.932;25.904;2022-10-16T00:30:18;101233.13;;;9.44;94.38
8705;BME280;4389;41.932;25.904;2022-10-16T00:32:46;101237.84;;;9.28;94.13
8705;BME280;4389;41.932;25.904;2022-10-16T00:35:13;101235.81;;;9.19;94.82
8705;BME280;4389;41.932;25.904;2022-10-16T00:37:41;101233.59;;;9.26;95.33
8705;BME280;4389;41.932;25.904;2022-10-16T00:40:08;101243.31;;;9.25;95.63
8705;BME280;4389;41.932;25.904;2022-10-16T00:42:35;101243.94;;;9.41;95.91
8705;BME280;4389;41.932;25.904;2022-10-16T00:45:04;101236.84;;;9.42;95.24
8705;BME280;4389;41.932;25.904;2022-10-16T00:47:32;101249.38;;;9.51;95.19
8705;BME280;4389;41.932;25.904;2022-10-16T00:50:06;101242.81;;;9.56;94.55
8705;BME280;4389;41.932;25.904;2022-10-16T00:52:34;101241.53;;;9.62;93.43
8705;BME280;4389;41.932;25.904;2022-10-16T00:55:02;101248.59;;;9.38;92.19
8705;BME280;4389;41.932;25.904;2022-10-16T00:57:29;101245.94;;;9.25;93.65
8705;BME280;4389;41.932;25.904;2022-10-16T00:59:57;101241.44;;;9.02;94.80
8705;BME280;4389;41.932;25.904;2022-10-16T01:02:24;101258.97;;;9.03;96.72
8705;BME280;4389;41.932;25.904;2022-10-16T01:04:52;101247.25;;;9.07;95.44
8705;BME280;4389;41.932;25.904;2022-10-16T01:07:30;101255.22;;;8.95;94.93
8705;BME280;4389;41.932;25.904;2022-10-16T01:10:07;101259.00;;;8.91;96.28
8705;BME280;4389;41.932;25.904;2022-10-16T01:12:41;101267.63;;;9.05;96.55
8705;BME280;4389;41.932;25.904;2022-10-16T01:15:13;101271.75;;;9.09;95.46
8705;BME280;4389;41.932;25.904;2022-10-16T01:17:50;101265.09;;;9.16;95.99
8705;BME280;4389;41.932;25.904;2022-10-16T01:20:26;101267.63;;;9.05;94.78
8705;BME280;4389;41.932;25.904;2022-10-16T01:23:05;101269.56;;;8.79;94.99
8705;BME280;4389;41.932;25.904;2022-10-16T01:26:03;101269.25;;;8.71;96.06
8705;BME280;4389;41.932;25.904;2022-10-16T01:28:39;101280.28;;;8.51;95.44
8705;BME280;4389;41.932;25.904;2022-10-16T01:31:09;101289.06;;;8.25;96.40
8705;BME280;4389;41.932;25.904;2022-10-16T01:33:40;101283.81;;;8.25;96.72
8705;BME280;4389;41.932;25.904;2022-10-16T01:36:13;101290.06;;;8.10;96.31
8705;BME280;4389;41.932;25.904;2022-10-16T01:38:42;101292.06;;;7.80;96.82
8705;BME280;4389;41.932;25.904;2022-10-16T01:41:14;101292.44;;;7.74;97.87
8705;BME280;4389;41.932;25.904;2022-10-16T01:43:46;101294.41;;;7.70;98.61
8705;BME280;4389;41.932;25.904;2022-10-16T01:46:17;101293.72;;;7.81;99.07
8705;BME280;4389;41.932;25.904;2022-10-16T01:48:45;101300.91;;;7.79;98.62
8705;BME280;4389;41.932;25.904;2022-10-16T01:51:13;101299.59;;;7.72;99.41
8705;BME280;4389;41.932;25.904;2022-10-16T01:53:43;101304.66;;;7.75;99.12
8705;BME280;4389;41.932;25.904;2022-10-16T01:56:14;101313.00;;;7.81;98.99
8705;BME280;4389;41.932;25.904;2022-10-16T01:58:47;101312.91;;;7.83;99.94
8705;BME280;4389;41.932;25.904;2022-10-16T02:01:19;101313.84;;;7.82;100.00
8705;BME280;4389;41.932;25.904;2022-10-16T02:03:50;101312.56;;;7.75;99.85
8705;BME280;4389;41.932;25.904;2022-10-16T02:06:18;101314.25;;;7.76;100.00
8705;BME280;4389;41.932;25.904;2022-10-16T02:08:46;101311.03;;;7.71;99.86
8705;BME280;4389;41.932;25.904;2022-10-16T02:11:13;101325.72;;;7.75;100.00
8705;BME280;4389;41.932;25.904;2022-10-16T02:13:43;101328.44;;;7.73;98.75
8705;BME280;4389;41.932;25.904;2022-10-16T02:16:14;101318.59;;;7.63;98.95
8705;BME280;4389;41.932;25.904;2022-10-16T02:18:42;101331.03;;;7.47;99.36
8705;BME280;4389;41.932;25.904;2022-10-16T02:21:14;101325.38;;;7.53;99.69
8705;BME280;4389;41.932;25.904;2022-10-16T02:23:48;101330.44;;;7.56;99.41
8705;BME280;4389;41.932;25.904;2022-10-16T02:26:23;101329.56;;;7.43;99.47
8705;BME280;4389;41.932;25.904;2022-10-16T02:28:57;101334.97;;;7.40;99.47
8705;BME280;4389;41.932;25.904;2022-10-16T02:31:29;101334.81;;;7.43;100.00
8705;BME280;4389;41.932;25.904;2022-10-16T02:34:00;101339.88;;;7.32;99.66
8705;BME280;4389;41.932;25.904;2022-10-16T02:36:28;101345.88;;;7.34;100.00
8705;BME280;4389;41.932;25.904;2022-10-16T02:38:56;101344.19;;;7.33;100.00
8705;BME280;4389;41.932;25.904;2022-10-16T02:41:23;101343.44;;;7.45;100.00
8705;BME280;4389;41.932;25.904;2022-10-16T02:43:50;101350.19;;;7.35;99.73
8705;BME280;4389;41.932;25.904;2022-10-16T02:46:17;101348.34;;;7.37;100.00
8705;BME280;4389;41.932;25.904;2022-10-16T02:48:46;101351.28;;;7.32;100.00
8705;BME280;4389;41.932;25.904;2022-10-16T02:51:13;101348.63;;;7.32;100.00
8705;BME280;4389;41.932;25.904;2022-10-16T02:53:39;101357.34;;;7.33;100.00
8705;BME280;4389;41.932;25.904;2022-10-16T02:56:07;101350.19;;;7.35;100.00
8705;BME280;4389;41.932;25.904;2022-10-16T02:58:33;101358.09;;;7.35;100.00
8705;BME280;4389;41.932;25.904;2022-10-16T03:01:00;101358.97;;;7.35;100.00
8705;BME280;4389;41.932;25.904;2022-10-16T03:03:27;101361.97;;;7.29;100.00
8705;BME280;4389;41.932;25.904;2022-10-16T03:05:55;101372.13;;;7.49;100.00
8705;BME280;4389;41.932;25.904;2022-10-16T03:08:22;101371.19;;;7.50;99.92
8705;BME280;4389;41.932;25.904;2022-10-16T03:10:50;101368.63;;;7.63;98.92
8705;BME280;4389;41.932;25.904;2022-10-16T03:13:17;101368.91;;;7.58;98.96
8705;BME280;4389;41.932;25.904;2022-10-16T03:15:46;101378.50;;;7.59;99.36
8705;BME280;4389;41.932;25.904;2022-10-16T03:18:13;101369.78;;;7.59;98.46
8705;BME280;4389;41.932;25.904;2022-10-16T03:20:39;101375.41;;;7.53;99.00
8705;BME280;4389;41.932;25.904;2022-10-16T03:23:08;101377.84;;;7.56;98.89
8705;BME280;4389;41.932;25.904;2022-10-16T03:25:35;101371.84;;;7.54;98.67
8705;BME280;4389;41.932;25.904;2022-10-16T03:28:02;101365.25;;;7.61;97.96
8705;BME280;4389;41.932;25.904;2022-10-16T03:30:28;101369.84;;;7.57;97.50
8705;BME280;4389;41.932;25.904;2022-10-16T03:32:55;101375.88;;;7.45;98.05
8705;BME280;4389;41.932;25.904;2022-10-16T03:35:23;101376.72;;;7.46;98.58
8705;BME280;4389;41.932;25.904;2022-10-16T03:37:50;101377.84;;;7.42;98.72
8705;BME280;4389;41.932;25.904;2022-10-16T03:40:19;101379.94;;;7.37;98.84
8705;BME280;4389;41.932;25.904;2022-10-16T03:42:46;101381.41;;;7.41;98.55
8705;BME280;4389;41.932;25.904;2022-10-16T03:45:13;101385.28;;;7.35;98.38
8705;BME280;4389;41.932;25.904;2022-10-16T03:47:39;101390.91;;;7.29;98.38
8705;BME280;4389;41.932;25.904;2022-10-16T03:50:07;101386.28;;;7.19;98.72
8705;BME280;4389;41.932;25.904;2022-10-16T03:52:34;101394.50;;;7.28;99.64
8705;BME280;4389;41.932;25.904;2022-10-16T03:55:01;101401.91;;;7.22;99.70
8705;BME280;4389;41.932;25.904;2022-10-16T03:57:29;101405.28;;;7.10;99.93
8705;BME280;4389;41.932;25.904;2022-10-16T03:59:56;101399.63;;;7.02;100.00
8705;BME280;4389;41.932;25.904;2022-10-16T04:02:23;101398.28;;;6.95;100.00
8705;BME280;4389;41.932;25.904;2022-10-16T04:04:49;101399.78;;;6.99;100.00
8705;BME280;4389;41.932;25.904;2022-10-16T04:07:16;101402.81;;;6.93;100.00
8705;BME280;4389;41.932;25.904;2022-10-16T04:09:43;101393.00;;;6.81;100.00
8705;BME280;4389;41.932;25.904;2022-10-16T04:12:10;101393.69;;;6.69;100.00
8705;BME280;4389;41.932;25.904;2022-10-16T04:14:38;101389.88;;;6.45;100.00
8705;BME280;4389;41.932;25.904;2022-10-16T04:17:05;101396.63;;;6.49;100.00
8705;BME280;4389;41.932;25.904;2022-10-16T04:19:32;101400.19;;;6.48;100.00
8705;BME280;4389;41.932;25.904;2022-10-16T04:21:59;101397.34;;;6.37;100.00
8705;BME280;4389;41.932;25.904;2022-10-16T04:24:25;101401.94;;;6.18;100.00
8705;BME280;4389;41.932;25.904;2022-10-16T04:26:52;101399.03;;;6.22;100.00
8705;BME280;4389;41.932;25.904;2022-10-16T04:29:19;101399.22;;;6.19;100.00
8705;BME280;4389;41.932;25.904;2022-10-16T04:31:47;101396.47;;;6.21;100.00
8705;BME280;4389;41.932;25.904;2022-10-16T04:34:14;101405.97;;;6.23;100.00
8705;BME280;4389;41.932;25.904;2022-10-16T04:36:41;101405.56;;;6.31;100.00
8705;BME280;4389;41.932;25.904;2022-10-16T04:39:08;101416.81;;;6.33;100.00
8705;BME280;4389;41.932;25.904;2022-10-16T04:41:34;101424.97;;;6.44;100.00
8705;BME280;4389;41.932;25.904;2022-10-16T04:44:02;101426.13;;;6.54;100.00
8705;BME280;4389;41.932;25.904;2022-10-16T04:46:28;101433.25;;;6.52;100.00
8705;BME280;4389;41.932;25.904;2022-10-16T04:48:57;101431.06;;;6.44;99.91
8705;BME280;4389;41.932;25.904;2022-10-16T04:51:26;101433.25;;;6.52;99.93
8705;BME280;4389;41.932;25.904;2022-10-16T04:53:53;101436.22;;;6.46;99.09
8705;BME280;4389;41.932;25.904;2022-10-16T04:56:20;101431.75;;;6.32;98.32
8705;BME280;4389;41.932;25.904;2022-10-16T04:58:48;101435.28;;;6.31;99.60
8705;BME280;4389;41.932;25.904;2022-10-16T05:01:15;101438.88;;;6.46;99.15
8705;BME280;4389;41.932;25.904;2022-10-16T05:03:42;101437.94;;;6.31;98.55
8705;BME280;4389;41.932;25.904;2022-10-16T05:06:10;101442.34;;;6.31;99.49
8705;BME280;4389;41.932;25.904;2022-10-16T05:08:37;101440.22;;;6.37;99.37
8705;BME280;4389;41.932;25.904;2022-10-16T05:11:04;101445.13;;;6.43;99.72
8705;BME280;4389;41.932;25.904;2022-10-16T05:13:31;101441.41;;;6.47;99.82
8705;BME280;4389;41.932;25.904;2022-10-16T05:15:58;101446.81;;;6.60;100.00
8705;BME280;4389;41.932;25.904;2022-10-16T05:18:25;101434.41;;;6.77;100.00
8705;BME280;4389;41.932;25.904;2022-10-16T05:20:51;101446.91;;;7.03;99.80
8705;BME280;4389;41.932;25.904;2022-10-16T05:23:20;101451.34;;;7.17;98.96
8705;BME280;4389;41.932;25.904;2022-10-16T05:25:52;101458.50;;;7.29;99.23
8705;BME280;4389;41.932;25.904;2022-10-16T05:28:19;101456.06;;;7.40;98.22
8705;BME280;4389;41.932;25.904;2022-10-16T05:30:46;101460.31;;;7.56;97.26
8705;BME280;4389;41.932;25.904;2022-10-16T05:33:13;101453.38;;;7.69;96.50
8705;BME280;4389;41.932;25.904;2022-10-16T05:35:40;101460.91;;;7.75;96.31
8705;BME280;4389;41.932;25.904;2022-10-16T05:38:07;101461.56;;;7.65;96.21
8705;BME280;4389;41.932;25.904;2022-10-16T05:40:35;101465.31;;;7.61;96.07
8705;BME280;4389;41.932;25.904;2022-10-16T05:43:02;101467.59;;;7.81;96.76
8705;BME280;4389;41.932;25.904;2022-10-16T05:45:28;101476.06;;;7.86;96.08
8705;BME280;4389;41.932;25.904;2022-10-16T05:47:55;101481.50;;;8.11;96.02
8705;BME280;4389;41.932;25.904;2022-10-16T05:50:22;101485.44;;;8.32;95.81
8705;BME280;4389;41.932;25.904;2022-10-16T05:52:49;101490.50;;;8.49;95.02
8705;BME280;4389;41.932;25.904;2022-10-16T05:55:16;101493.75;;;8.66;94.30
8705;BME280;4389;41.932;25.904;2022-10-16T05:57:44;101499.28;;;8.76;94.59
8705;BME280;4389;41.932;25.904;2022-10-16T06:00:11;101501.13;;;8.88;94.68
8705;BME280;4389;41.932;25.904;2022-10-16T06:02:39;101495.97;;;8.98;94.85
8705;BME280;4389;41.932;25.904;2022-10-16T06:05:06;101495.56;;;9.04;95.28
8705;BME280;4389;41.932;25.904;2022-10-16T06:07:34;101490.84;;;9.09;95.18
8705;BME280;4389;41.932;25.904;2022-10-16T06:10:03;101487.59;;;9.18;95.09
8705;BME280;4389;41.932;25.904;2022-10-16T06:12:29;101497.41;;;9.16;94.54
8705;BME280;4389;41.932;25.904;2022-10-16T06:14:58;101492.56;;;9.23;94.69
8705;BME280;4389;41.932;25.904;2022-10-16T06:17:24;101490.78;;;9.23;94.29
8705;BME280;4389;41.932;25.904;2022-10-16T06:19:51;101493.66;;;9.45;94.22
8705;BME280;4389;41.932;25.904;2022-10-16T06:22:18;101489.34;;;9.69;92.94
8705;BME280;4389;41.932;25.904;2022-10-16T06:24:45;101484.16;;;9.80;92.21
8705;BME280;4389;41.932;25.904;2022-10-16T06:27:13;101495.78;;;9.90;92.10
8705;BME280;4389;41.932;25.904;2022-10-16T06:29:39;101494.94;;;10.02;91.60
8705;BME280;4389;41.932;25.904;2022-10-16T06:32:09;101492.50;;;10.24;91.00
8705;BME280;4389;41.932;25.904;2022-10-16T06:34:36;101503.28;;;10.34;90.18
8705;BME280;4389;41.932;25.904;2022-10-16T06:37:05;101506.31;;;10.40;89.61
8705;BME280;4389;41.932;25.904;2022-10-16T06:39:32;101506.31;;;10.40;90.46
8705;BME280;4389;41.932;25.904;2022-10-16T06:41:59;101495.81;;;10.51;90.48
8705;BME280;4389;41.932;25.904;2022-10-16T06:44:25;101508.50;;;10.59;89.66
8705;BME280;4389;41.932;25.904;2022-10-16T06:46:54;101512.56;;;10.75;89.51
8705;BME280;4389;41.932;25.904;2022-10-16T06:49:22;101505.81;;;10.71;89.71
8705;BME280;4389;41.932;25.904;2022-10-16T06:51:49;101511.91;;;10.84;89.47
8705;BME280;4389;41.932;25.904;2022-10-16T06:54:16;101512.84;;;11.07;88.78
8705;BME280;4389;41.932;25.904;2022-10-16T06:56:43;101514.69;;;11.17;89.42
8705;BME280;4389;41.932;25.904;2022-10-16T06:59:10;101517.41;;;11.28;88.74
8705;BME280;4389;41.932;25.904;2022-10-16T07:01:37;101509.97;;;11.33;88.92
8705;BME280;4389;41.932;25.904;2022-10-16T07:04:04;101510.72;;;11.46;88.29
8705;BME280;4389;41.932;25.904;2022-10-16T07:06:33;101515.25;;;11.68;87.11
8705;BME280;4389;41.932;25.904;2022-10-16T07:09:02;101516.16;;;11.90;86.92
8705;BME280;4389;41.932;25.904;2022-10-16T07:11:29;101518.44;;;12.06;85.78
8705;BME280;4389;41.932;25.904;2022-10-16T07:13:56;101515.66;;;12.18;85.30
8705;BME280;4389;41.932;25.904;2022-10-16T07:16:24;101517.47;;;12.40;84.20
8705;BME280;4389;41.932;25.904;2022-10-16T07:18:51;101518.31;;;12.62;82.89
8705;BME280;4389;41.932;25.904;2022-10-16T07:21:23;101516.34;;;12.75;81.90
8705;BME280;4389;41.932;25.904;2022-10-16T07:23:54;101519.81;;;12.87;81.67
8705;BME280;4389;41.932;25.904;2022-10-16T07:26:22;101524.03;;;13.00;81.33
8705;BME280;4389;41.932;25.904;2022-10-16T07:28:49;101514.41;;;13.20;80.86
8705;BME280;4389;41.932;25.904;2022-10-16T07:31:18;101519.56;;;13.32;79.66
8705;BME280;4389;41.932;25.904;2022-10-16T07:33:46;101523.41;;;13.39;79.66
8705;BME280;4389;41.932;25.904;2022-10-16T07:36:14;101522.63;;;13.48;78.85
8705;BME280;4389;41.932;25.904;2022-10-16T07:38:41;101519.78;;;13.61;77.98
8705;BME280;4389;41.932;25.904;2022-10-16T07:41:12;101521.06;;;13.66;76.79
8705;BME280;4389;41.932;25.904;2022-10-16T07:43:39;101523.22;;;13.72;75.95
8705;BME280;4389;41.932;25.904;2022-10-16T07:46:06;101522.09;;;13.74;74.75
8705;BME280;4389;41.932;25.904;2022-10-16T07:48:34;101523.91;;;13.74;74.65
8705;BME280;4389;41.932;25.904;2022-10-16T07:51:03;101515.34;;;13.91;72.77
8705;BME280;4389;41.932;25.904;2022-10-16T07:53:30;101508.44;;;14.09;73.73
8705;BME280;4389;41.932;25.904;2022-10-16T07:55:58;101520.88;;;14.29;71.25
8705;BME280;4389;41.932;25.904;2022-10-16T07:58:27;101520.75;;;14.30;68.89
8705;BME280;4389;41.932;25.904;2022-10-16T08:00:54;101522.00;;;14.26;68.54
8705;BME280;4389;41.932;25.904;2022-10-16T08:03:21;101516.84;;;14.34;69.05
8705;BME280;4389;41.932;25.904;2022-10-16T08:05:48;101510.56;;;14.45;68.00
8705;BME280;4389;41.932;25.904;2022-10-16T08:08:17;101525.59;;;14.55;67.88
8705;BME280;4389;41.932;25.904;2022-10-16T08:10:44;101514.28;;;14.63;67.51
8705;BME280;4389;41.932;25.904;2022-10-16T08:13:11;101516.97;;;14.72;66.51
8705;BME280;4389;41.932;25.904;2022-10-16T08:15:41;101521.34;;;14.83;65.72
8705;BME280;4389;41.932;25.904;2022-10-16T08:18:09;101524.41;;;14.88;64.40
8705;BME280;4389;41.932;25.904;2022-10-16T08:20:36;101512.09;;;15.06;62.35
8705;BME280;4389;41.932;25.904;2022-10-16T08:23:03;101513.94;;;15.15;62.24
8705;BME280;4389;41.932;25.904;2022-10-16T08:25:30;101506.38;;;15.20;60.74
8705;BME280;4389;41.932;25.904;2022-10-16T08:27:57;101520.25;;;15.14;61.79
8705;BME280;4389;41.932;25.904;2022-10-16T08:30:24;101518.28;;;15.16;61.14
8705;BME280;4389;41.932;25.904;2022-10-16T08:32:53;101516.59;;;15.15;60.56
8705;BME280;4389;41.932;25.904;2022-10-16T08:35:19;101521.41;;;15.40;60.53
8705;BME280;4389;41.932;25.904;2022-10-16T08:37:46;101522.25;;;15.50;59.89
8705;BME280;4389;41.932;25.904;2022-10-16T08:40:18;101529.97;;;15.53;59.60
8705;BME280;4389;41.932;25.904;2022-10-16T08:43:12;101519.13;;;15.64;60.02
8705;BME280;4389;41.932;25.904;2022-10-16T08:46:06;101516.88;;;15.69;59.56
8705;BME280;4389;41.932;25.904;2022-10-16T08:48:44;101517.97;;;15.95;58.23
8705;BME280;4389;41.932;25.904;2022-10-16T08:51:18;101513.53;;;16.13;57.27
8705;BME280;4389;41.932;25.904;2022-10-16T08:53:52;101512.50;;;16.23;55.93
8705;BME280;4389;41.932;25.904;2022-10-16T08:56:20;101504.75;;;16.30;55.08
8705;BME280;4389;41.932;25.904;2022-10-16T08:58:48;101514.28;;;16.32;53.60
8705;BME280;4389;41.932;25.904;2022-10-16T09:01:17;101508.97;;;16.32;53.09
8705;BME280;4389;41.932;25.904;2022-10-16T09:04:14;101518.38;;;16.46;52.79
8705;BME280;4389;41.932;25.904;2022-10-16T09:06:53;101513.81;;;16.56;51.46
8705;BME280;4389;41.932;25.904;2022-10-16T09:09:33;101517.16;;;16.58;50.76
8705;BME280;4389;41.932;25.904;2022-10-16T09:12:05;101524.22;;;16.59;50.59
8705;BME280;4389;41.932;25.904;2022-10-16T09:14:45;101507.28;;;16.68;49.83
8705;BME280;4389;41.932;25.904;2022-10-16T09:17:25;101514.22;;;16.61;49.76
8705;BME280;4389;41.932;25.904;2022-10-16T09:20:06;101512.91;;;16.65;49.09
8705;BME280;4389;41.932;25.904;2022-10-16T09:22:38;101503.28;;;16.72;48.81
8705;BME280;4389;41.932;25.904;2022-10-16T09:25:12;101503.78;;;16.85;50.10
8705;BME280;4389;41.932;25.904;2022-10-16T09:27:39;101498.97;;;16.88;49.38
8705;BME280;4389;41.932;25.904;2022-10-16T09:30:12;101500.44;;;17.00;49.42
8705;BME280;4389;41.932;25.904;2022-10-16T09:32:40;101487.75;;;17.02;48.63
8705;BME280;4389;41.932;25.904;2022-10-16T09:35:14;101504.19;;;17.07;47.62
8705;BME280;4389;41.932;25.904;2022-10-16T09:37:42;101487.28;;;17.07;48.04
8705;BME280;4389;41.932;25.904;2022-10-16T09:40:13;101490.41;;;17.20;49.58
8705;BME280;4389;41.932;25.904;2022-10-16T09:42:40;101489.88;;;17.34;48.12
8705;BME280;4389;41.932;25.904;2022-10-16T09:45:20;101487.00;;;17.45;47.27
8705;BME280;4389;41.932;25.904;2022-10-16T09:47:48;101495.41;;;17.50;46.96
8705;BME280;4389;41.932;25.904;2022-10-16T09:50:23;101484.22;;;17.54;48.23
8705;BME280;4389;41.932;25.904;2022-10-16T09:53:03;101489.19;;;17.67;47.09
8705;BME280;4389;41.932;25.904;2022-10-16T09:55:30;101492.47;;;17.61;45.67
8705;BME280;4389;41.932;25.904;2022-10-16T09:57:57;101478.66;;;17.48;46.31
8705;BME280;4389;41.932;25.904;2022-10-16T10:00:24;101487.75;;;17.55;46.17
8705;BME280;4389;41.932;25.904;2022-10-16T10:02:52;101493.16;;;17.63;47.05
8705;BME280;4389;41.932;25.904;2022-10-16T10:05:22;101484.19;;;17.72;45.65
8705;BME280;4389;41.932;25.904;2022-10-16T10:07:55;101476.09;;;17.89;45.60
8705;BME280;4389;41.932;25.904;2022-10-16T10:10:24;101466.59;;;17.95;45.53
8705;BME280;4389;41.932;25.904;2022-10-16T10:12:52;101469.03;;;18.14;45.15
8705;BME280;4389;41.932;25.904;2022-10-16T10:15:19;101465.41;;;18.23;44.14
8705;BME280;4389;41.932;25.904;2022-10-16T10:17:48;101467.88;;;18.16;42.81
8705;BME280;4389;41.932;25.904;2022-10-16T10:20:25;101460.44;;;18.02;42.90
8705;BME280;4389;41.932;25.904;2022-10-16T10:22:54;101455.94;;;18.03;43.09
8705;BME280;4389;41.932;25.904;2022-10-16T10:25:38;101450.78;;;18.17;42.10
8705;BME280;4389;41.932;25.904;2022-10-16T10:28:30;101452.41;;;18.36;40.04
8705;BME280;4389;41.932;25.904;2022-10-16T10:31:09;101445.97;;;18.29;40.07
8705;BME280;4389;41.932;25.904;2022-10-16T10:33:44;101441.03;;;18.42;40.50
8705;BME280;4389;41.932;25.904;2022-10-16T10:36:22;101450.75;;;18.35;40.24
8705;BME280;4389;41.932;25.904;2022-10-16T10:38:57;101451.13;;;18.48;40.74
8705;BME280;4389;41.932;25.904;2022-10-16T10:45:00;101444.09;;;18.55;40.78
8705;BME280;4389;41.932;25.904;2022-10-16T10:47:37;101440.91;;;18.51;39.89
8705;BME280;4389;41.932;25.904;2022-10-16T10:50:14;101444.59;;;18.50;40.25
8705;BME280;4389;41.932;25.904;2022-10-16T10:52:54;101441.47;;;18.71;39.52
8705;BME280;4389;41.932;25.904;2022-10-16T10:55:33;101436.78;;;18.73;39.28
8705;BME280;4389;41.932;25.904;2022-10-16T11:01:02;101439.78;;;18.70;39.07
8705;BME280;4389;41.932;25.904;2022-10-16T11:06:36;101425.41;;;18.87;39.62
8705;BME280;4389;41.932;25.904;2022-10-16T11:09:11;101420.06;;;18.94;39.23
8705;BME280;4389;41.932;25.904;2022-10-16T11:11:42;101425.06;;;19.05;39.79
8705;BME280;4389;41.932;25.904;2022-10-16T11:14:14;101412.66;;;19.04;39.40
8705;BME280;4389;41.932;25.904;2022-10-16T11:16:48;101412.34;;;19.07;39.21
8705;BME280;4389;41.932;25.904;2022-10-16T11:19:31;101415.00;;;18.99;39.04
8705;BME280;4389;41.932;25.904;2022-10-16T11:22:02;101423.28;;;19.22;39.06
8705;BME280;4389;41.932;25.904;2022-10-16T11:24:37;101428.63;;;19.30;38.67
8705;BME280;4389;41.932;25.904;2022-10-16T11:27:09;101421.09;;;19.25;39.14
8705;BME280;4389;41.932;25.904;2022-10-16T11:29:45;101421.75;;;19.19;39.14
8705;BME280;4389;41.932;25.904;2022-10-16T11:32:21;101411.00;;;19.27;38.39
8705;BME280;4389;41.932;25.904;2022-10-16T11:34:52;101398.94;;;19.15;38.56
8705;BME280;4389;41.932;25.904;2022-10-16T11:37:24;101415.03;;;19.15;38.99
8705;BME280;4389;41.932;25.904;2022-10-16T11:39:59;101405.66;;;19.19;39.52
8705;BME280;4389;41.932;25.904;2022-10-16T11:42:33;101410.16;;;19.19;39.70
8705;BME280;4389;41.932;25.904;2022-10-16T11:45:11;101397.94;;;19.24;39.05
8705;BME280;4389;41.932;25.904;2022-10-16T11:47:45;101400.63;;;19.32;39.18
8705;BME280;4389;41.932;25.904;2022-10-16T11:50:22;101402.63;;;19.46;39.80
8705;BME280;4389;41.932;25.904;2022-10-16T11:52:55;101412.16;;;19.57;38.97
8705;BME280;4389;41.932;25.904;2022-10-16T11:55:29;101396.72;;;19.51;38.63
8705;BME280;4389;41.932;25.904;2022-10-16T11:58:01;101404.28;;;19.47;38.74
8705;BME280;4389;41.932;25.904;2022-10-16T12:00:34;101399.91;;;19.54;39.61
8705;BME280;4389;41.932;25.904;2022-10-16T12:03:12;101401.78;;;19.54;39.61
8705;BME280;4389;41.932;25.904;2022-10-16T12:05:55;101411.16;;;19.50;39.15
8705;BME280;4389;41.932;25.904;2022-10-16T12:08:26;101408.63;;;19.56;38.86
8705;BME280;4389;41.932;25.904;2022-10-16T12:11:07;101406.63;;;19.58;38.56
8705;BME280;4389;41.932;25.904;2022-10-16T12:13:36;101403.75;;;19.60;38.56
8705;BME280;4389;41.932;25.904;2022-10-16T12:16:19;101405.59;;;19.67;39.56
8705;BME280;4389;41.932;25.904;2022-10-16T12:18:47;101416.97;;;19.77;39.20
8705;BME280;4389;41.932;25.904;2022-10-16T12:21:16;101404.94;;;19.65;39.13
8705;BME280;4389;41.932;25.904;2022-10-16T12:23:49;101400.88;;;19.69;39.97
8705;BME280;4389;41.932;25.904;2022-10-16T12:26:25;101406.22;;;19.77;39.24
8705;BME280;4389;41.932;25.904;2022-10-16T12:28:53;101409.88;;;19.92;40.68
8705;BME280;4389;41.932;25.904;2022-10-16T12:31:21;101414.06;;;19.95;41.58
8705;BME280;4389;41.932;25.904;2022-10-16T12:33:59;101407.22;;;19.84;41.26
8705;BME280;4389;41.932;25.904;2022-10-16T12:36:29;101416.09;;;19.93;41.62
8705;BME280;4389;41.932;25.904;2022-10-16T12:38:58;101410.84;;;19.99;40.75
8705;BME280;4389;41.932;25.904;2022-10-16T12:41:29;101410.53;;;20.02;40.10
8705;BME280;4389;41.932;25.904;2022-10-16T12:43:56;101414.91;;;19.95;41.13
8705;BME280;4389;41.932;25.904;2022-10-16T12:46:37;101420.13;;;19.97;41.48
8705;BME280;4389;41.932;25.904;2022-10-16T12:49:29;101424.69;;;19.88;41.42
8705;BME280;4389;41.932;25.904;2022-10-16T12:51:56;101418.66;;;19.86;41.32
8705;BME280;4389;41.932;25.904;2022-10-16T12:54:27;101421.34;;;19.86;41.61
8705;BME280;4389;41.932;25.904;2022-10-16T12:57:10;101420.00;;;19.82;41.42
8705;BME280;4389;41.932;25.904;2022-10-16T12:59:44;101423.69;;;19.81;41.55
8705;BME280;4389;41.932;25.904;2022-10-16T13:05:22;101410.09;;;19.83;41.56
8705;BME280;4389;41.932;25.904;2022-10-16T13:07:59;101418.97;;;19.83;41.22
8705;BME280;4389;41.932;25.904;2022-10-16T13:10:35;101412.63;;;19.76;41.36
8705;BME280;4389;41.932;25.904;2022-10-16T13:13:28;101419.63;;;19.85;42.20
8705;BME280;4389;41.932;25.904;2022-10-16T13:16:08;101431.03;;;19.95;41.94
8705;BME280;4389;41.932;25.904;2022-10-16T13:18:45;101424.81;;;19.95;41.69
8705;BME280;4389;41.932;25.904;2022-10-16T13:21:26;101413.81;;;19.82;41.66
8705;BME280;4389;41.932;25.904;2022-10-16T13:24:03;101411.59;;;19.77;41.87
8705;BME280;4389;41.932;25.904;2022-10-16T13:26:41;101415.78;;;19.80;41.64
8705;BME280;4389;41.932;25.904;2022-10-16T13:29:12;101419.63;;;19.85;41.31
8705;BME280;4389;41.932;25.904;2022-10-16T13:31:40;101419.63;;;19.85;41.09
8705;BME280;4389;41.932;25.904;2022-10-16T13:34:12;101421.66;;;19.83;41.89